sensor_id;sensor_type;location;lat;lon;timestamp;pressure;altitude;pressure_sealevel;temperature;humidity
16664;BME280;8445;51.270;9.434;2023-03-13T00:00:34;98586.69;;;6.00;70.09
16664;BME280;8445;51.270;9.434;2023-03-13T00:02:59;98576.84;;;6.04;70.08
16664;BME280;8445;51.270;9.434;2023-03-13T00:05:25;98581.66;;;6.10;70.13
16664;BME280;8445;51.270;9.434;2023-03-13T00:07:50;98575.47;;;6.11;70.32
16664;BME280;8445;51.270;9.434;2023-03-13T00:10:16;98574.19;;;6.17;70.04
16664;BME280;8445;51.270;9.434;2023-03-13T00:12:41;98567.75;;;6.21;70.22
16664;BME280;8445;51.270;9.434;2023-03-13T00:15:10;98564.78;;;6.26;70.76
16664;BME280;8445;51.270;9.434;2023-03-13T00:17:35;98569.84;;;6.29;70.17
16664;BME280;8445;51.270;9.434;2023-03-13T00:20:01;98560.06;;;6.31;70.07
16664;BME280;8445;51.270;9.434;2023-03-13T00:22:26;98555.53;;;6.33;69.83
16664;BME280;8445;51.270;9.434;2023-03-13T00:24:54;98556.38;;;6.33;69.90
16664;BME280;8445;51.270;9.434;2023-03-13T00:27:19;98547.34;;;6.37;70.55
16664;BME280;8445;51.270;9.434;2023-03-13T00:29:45;98549.53;;;6.44;70.24
16664;BME280;8445;51.270;9.434;2023-03-13T00:32:10;98546.69;;;6.47;70.26
16664;BME280;8445;51.270;9.434;2023-03-13T00:34:36;98550.00;;;6.49;70.41
16664;BME280;8445;51.270;9.434;2023-03-13T00:37:01;98536.03;;;6.48;70.28
16664;BME280;8445;51.270;9.434;2023-03-13T00:39:27;98532.34;;;6.51;70.31
16664;BME280;8445;51.270;9.434;2023-03-13T00:41:52;98532.25;;;6.52;70.16
16664;BME280;8445;51.270;9.434;2023-03-13T00:44:20;98526.88;;;6.54;70.53
16664;BME280;8445;51.270;9.434;2023-03-13T00:46:48;98529.41;;;6.56;70.55
16664;BME280;8445;51.270;9.434;2023-03-13T00:49:14;98523.91;;;6.59;70.22
16664;BME280;8445;51.270;9.434;2023-03-13T00:51:39;98508.75;;;6.62;70.38
16664;BME280;8445;51.270;9.434;2023-03-13T00:54:07;98513.56;;;6.68;70.31
16664;BME280;8445;51.270;9.434;2023-03-13T00:56:33;98505.22;;;6.75;70.33
16664;BME280;8445;51.270;9.434;2023-03-13T00:59:02;98493.53;;;6.79;69.95
16664;BME280;8445;51.270;9.434;2023-03-13T01:01:31;98489.59;;;6.85;69.99
16664;BME280;8445;51.270;9.434;2023-03-13T01:04:00;98482.31;;;6.88;70.26
16664;BME280;8445;51.270;9.434;2023-03-13T01:06:28;98485.56;;;6.92;70.08
16664;BME280;8445;51.270;9.434;2023-03-13T01:08:57;98485.22;;;6.96;70.14
16664;BME280;8445;51.270;9.434;2023-03-13T01:11:29;98485.34;;;7.06;70.33
16664;BME280;8445;51.270;9.434;2023-03-13T01:14:00;98482.97;;;7.15;70.48
16664;BME280;8445;51.270;9.434;2023-03-13T01:16:28;98482.63;;;7.19;69.71
16664;BME280;8445;51.270;9.434;2023-03-13T01:18:56;98458.94;;;7.19;69.66
16664;BME280;8445;51.270;9.434;2023-03-13T01:21:26;98464.69;;;7.24;69.81
16664;BME280;8445;51.270;9.434;2023-03-13T01:23:53;98463.72;;;7.25;69.95
16664;BME280;8445;51.270;9.434;2023-03-13T01:26:19;98455.50;;;7.30;69.85
16664;BME280;8445;51.270;9.434;2023-03-13T01:28:45;98450.97;;;7.32;69.96
16664;BME280;8445;51.270;9.434;2023-03-13T01:33:41;98439.94;;;7.38;69.70
16664;BME280;8445;51.270;9.434;2023-03-13T01:36:07;98436.34;;;7.39;69.43
16664;BME280;8445;51.270;9.434;2023-03-13T01:38:33;98426.69;;;7.40;69.80
16664;BME280;8445;51.270;9.434;2023-03-13T01:40:59;98421.19;;;7.43;69.56
16664;BME280;8445;51.270;9.434;2023-03-13T01:43:28;98421.91;;;7.45;69.99
16664;BME280;8445;51.270;9.434;2023-03-13T01:51:27;98421.53;;;7.50;69.83
16664;BME280;8445;51.270;9.434;2023-03-13T01:56:57;98402.75;;;7.54;70.32
16664;BME280;8445;51.270;9.434;2023-03-13T01:59:29;98393.91;;;7.55;70.24
16664;BME280;8445;51.270;9.434;2023-03-13T02:01:59;98400.22;;;7.64;70.49
16664;BME280;8445;51.270;9.434;2023-03-13T02:04:30;98385.72;;;7.70;69.73
16664;BME280;8445;51.270;9.434;2023-03-13T02:07:02;98382.59;;;7.76;70.62
16664;BME280;8445;51.270;9.434;2023-03-13T02:09:30;98370.59;;;7.83;70.37
16664;BME280;8445;51.270;9.434;2023-03-13T02:12:03;98367.97;;;7.83;69.93
16664;BME280;8445;51.270;9.434;2023-03-13T02:14:33;98351.94;;;7.86;70.03
16664;BME280;8445;51.270;9.434;2023-03-13T02:17:00;98360.53;;;7.89;69.73
16664;BME280;8445;51.270;9.434;2023-03-13T02:19:47;98351.44;;;7.93;71.34
16664;BME280;8445;51.270;9.434;2023-03-13T02:22:38;98347.34;;;8.00;70.52
16664;BME280;8445;51.270;9.434;2023-03-13T02:27:55;98326.34;;;8.10;70.13
16664;BME280;8445;51.270;9.434;2023-03-13T02:30:22;98322.63;;;8.12;70.04
16664;BME280;8445;51.270;9.434;2023-03-13T02:32:49;98307.53;;;8.14;70.19
16664;BME280;8445;51.270;9.434;2023-03-13T02:35:17;98313.50;;;8.16;70.26
16664;BME280;8445;51.270;9.434;2023-03-13T02:37:47;98310.03;;;8.16;70.70
16664;BME280;8445;51.270;9.434;2023-03-13T02:40:23;98302.00;;;8.18;70.19
16664;BME280;8445;51.270;9.434;2023-03-13T02:42:51;98307.03;;;8.21;70.21
16664;BME280;8445;51.270;9.434;2023-03-13T02:45:19;98292.88;;;8.22;70.80
16664;BME280;8445;51.270;9.434;2023-03-13T02:47:45;98299.53;;;8.26;70.60
16664;BME280;8445;51.270;9.434;2023-03-13T02:50:12;98296.91;;;8.26;70.49
16664;BME280;8445;51.270;9.434;2023-03-13T02:52:50;98290.69;;;8.27;71.80
16664;BME280;8445;51.270;9.434;2023-03-13T02:55:26;98282.25;;;8.33;70.83
16664;BME280;8445;51.270;9.434;2023-03-13T02:57:52;98278.66;;;8.34;70.73
16664;BME280;8445;51.270;9.434;2023-03-13T03:00:20;98268.81;;;8.36;71.06
16664;BME280;8445;51.270;9.434;2023-03-13T03:02:54;98258.47;;;8.44;70.66
16664;BME280;8445;51.270;9.434;2023-03-13T03:05:21;98261.09;;;8.44;70.81
16664;BME280;8445;51.270;9.434;2023-03-13T03:07:48;98245.88;;;8.48;70.57
16664;BME280;8445;51.270;9.434;2023-03-13T03:10:17;98246.75;;;8.49;70.55
16664;BME280;8445;51.270;9.434;2023-03-13T03:12:43;98235.22;;;8.50;70.73
16664;BME280;8445;51.270;9.434;2023-03-13T03:15:11;98210.44;;;8.52;70.98
16664;BME280;8445;51.270;9.434;2023-03-13T03:17:41;98207.38;;;8.57;70.72
16664;BME280;8445;51.270;9.434;2023-03-13T03:20:08;98192.38;;;8.57;70.23
16664;BME280;8445;51.270;9.434;2023-03-13T03:22:38;98200.28;;;8.57;70.37
16664;BME280;8445;51.270;9.434;2023-03-13T03:25:06;98195.16;;;8.56;70.42
16664;BME280;8445;51.270;9.434;2023-03-13T03:27:32;98182.69;;;8.58;70.99
16664;BME280;8445;51.270;9.434;2023-03-13T03:29:57;98182.44;;;8.61;70.54
16664;BME280;8445;51.270;9.434;2023-03-13T03:32:23;98169.09;;;8.63;70.49
16664;BME280;8445;51.270;9.434;2023-03-13T03:34:48;98170.38;;;8.68;70.84
16664;BME280;8445;51.270;9.434;2023-03-13T03:37:13;98161.34;;;8.71;70.67
16664;BME280;8445;51.270;9.434;2023-03-13T03:39:42;98162.19;;;8.71;70.35
16664;BME280;8445;51.270;9.434;2023-03-13T03:42:09;98165.53;;;8.73;70.61
16664;BME280;8445;51.270;9.434;2023-03-13T03:44:35;98154.16;;;8.73;70.37
16664;BME280;8445;51.270;9.434;2023-03-13T03:47:02;98152.34;;;8.73;70.86
16664;BME280;8445;51.270;9.434;2023-03-13T03:49:32;98138.91;;;8.77;70.82
16664;BME280;8445;51.270;9.434;2023-03-13T03:51:57;98131.97;;;8.75;70.89
16664;BME280;8445;51.270;9.434;2023-03-13T03:54:29;98138.63;;;8.80;70.85
16664;BME280;8445;51.270;9.434;2023-03-13T03:56:55;98131.53;;;8.80;71.20
16664;BME280;8445;51.270;9.434;2023-03-13T03:59:20;98130.31;;;8.84;71.06
16664;BME280;8445;51.270;9.434;2023-03-13T04:01:50;98125.56;;;8.88;70.80
16664;BME280;8445;51.270;9.434;2023-03-13T04:04:20;98114.75;;;8.91;71.29
16664;BME280;8445;51.270;9.434;2023-03-13T04:06:49;98119.47;;;8.97;71.22
16664;BME280;8445;51.270;9.434;2023-03-13T04:09:15;98112.13;;;9.01;71.32
16664;BME280;8445;51.270;9.434;2023-03-13T04:11:40;98106.72;;;9.02;71.93
16664;BME280;8445;51.270;9.434;2023-03-13T04:14:08;98094.78;;;9.08;72.20
16664;BME280;8445;51.270;9.434;2023-03-13T04:16:34;98095.34;;;9.12;71.74
16664;BME280;8445;51.270;9.434;2023-03-13T04:19:00;98083.13;;;9.11;71.50
16664;BME280;8445;51.270;9.434;2023-03-13T04:21:26;98096.19;;;9.12;72.28
16664;BME280;8445;51.270;9.434;2023-03-13T04:24:02;98097.28;;;9.10;73.27
16664;BME280;8445;51.270;9.434;2023-03-13T04:26:28;98096.47;;;9.09;73.47
16664;BME280;8445;51.270;9.434;2023-03-13T04:28:56;98078.00;;;9.09;72.86
16664;BME280;8445;51.270;9.434;2023-03-13T04:31:41;98074.50;;;9.09;72.86
16664;BME280;8445;51.270;9.434;2023-03-13T04:34:26;98068.53;;;9.07;73.06
16664;BME280;8445;51.270;9.434;2023-03-13T04:37:14;98076.03;;;9.01;73.72
16664;BME280;8445;51.270;9.434;2023-03-13T04:39:40;98080.22;;;9.04;73.15
16664;BME280;8445;51.270;9.434;2023-03-13T04:42:33;98086.59;;;9.01;73.75
16664;BME280;8445;51.270;9.434;2023-03-13T04:45:14;98079.53;;;9.02;73.06
16664;BME280;8445;51.270;9.434;2023-03-13T04:48:05;98077.84;;;9.01;73.63
16664;BME280;8445;51.270;9.434;2023-03-13T04:50:47;98070.91;;;9.00;73.98
16664;BME280;8445;51.270;9.434;2023-03-13T04:53:31;98064.94;;;8.98;74.68
16664;BME280;8445;51.270;9.434;2023-03-13T04:56:25;98053.53;;;8.97;74.69
16664;BME280;8445;51.270;9.434;2023-03-13T04:59:14;98043.00;;;8.97;74.79
16664;BME280;8445;51.270;9.434;2023-03-13T05:01:58;98031.34;;;9.00;74.52
16664;BME280;8445;51.270;9.434;2023-03-13T05:04:43;98052.72;;;9.07;74.00
16664;BME280;8445;51.270;9.434;2023-03-13T05:07:23;98027.88;;;9.09;74.16
16664;BME280;8445;51.270;9.434;2023-03-13T05:10:04;98020.38;;;9.04;74.74
16664;BME280;8445;51.270;9.434;2023-03-13T05:12:59;98020.38;;;9.04;75.24
16664;BME280;8445;51.270;9.434;2023-03-13T05:15:31;98030.09;;;9.04;74.93
16664;BME280;8445;51.270;9.434;2023-03-13T05:18:22;98025.63;;;9.04;75.09
16664;BME280;8445;51.270;9.434;2023-03-13T05:21:08;98024.66;;;9.05;75.36
16664;BME280;8445;51.270;9.434;2023-03-13T05:23:54;98024.38;;;9.09;74.76
16664;BME280;8445;51.270;9.434;2023-03-13T05:26:39;98029.53;;;9.10;75.19
16664;BME280;8445;51.270;9.434;2023-03-13T05:29:20;98027.88;;;9.09;75.46
16664;BME280;8445;51.270;9.434;2023-03-13T05:32:04;98048.53;;;9.14;75.35
16664;BME280;8445;51.270;9.434;2023-03-13T05:34:50;98044.78;;;9.16;75.09
16664;BME280;8445;51.270;9.434;2023-03-13T05:37:42;98035.75;;;9.19;75.63
16664;BME280;8445;51.270;9.434;2023-03-13T05:40:30;98036.47;;;9.21;76.01
16664;BME280;8445;51.270;9.434;2023-03-13T05:43:11;98029.16;;;9.43;74.97
16664;BME280;8445;51.270;9.434;2023-03-13T05:45:57;98015.53;;;9.57;76.02
16664;BME280;8445;51.270;9.434;2023-03-13T05:48:47;98021.16;;;9.82;75.02
16664;BME280;8445;51.270;9.434;2023-03-13T05:51:31;98025.97;;;9.87;74.67
16664;BME280;8445;51.270;9.434;2023-03-13T05:54:32;98018.59;;;9.90;74.32
16664;BME280;8445;51.270;9.434;2023-03-13T05:57:03;98005.69;;;9.87;74.48
16664;BME280;8445;51.270;9.434;2023-03-13T05:59:54;98001.53;;;9.85;74.80
16664;BME280;8445;51.270;9.434;2023-03-13T06:02:38;97986.22;;;9.88;74.94
16664;BME280;8445;51.270;9.434;2023-03-13T06:05:05;97980.09;;;9.88;75.20
16664;BME280;8445;51.270;9.434;2023-03-13T06:07:30;97980.34;;;9.94;75.44
16664;BME280;8445;51.270;9.434;2023-03-13T06:09:56;97978.03;;;10.09;75.09
16664;BME280;8445;51.270;9.434;2023-03-13T06:12:22;97969.75;;;10.22;74.98
16664;BME280;8445;51.270;9.434;2023-03-13T06:14:49;97971.72;;;10.20;75.39
16664;BME280;8445;51.270;9.434;2023-03-13T06:17:41;97968.16;;;10.12;75.49
16664;BME280;8445;51.270;9.434;2023-03-13T06:20:07;97962.47;;;10.06;76.08
16664;BME280;8445;51.270;9.434;2023-03-13T06:22:32;97966.25;;;10.04;75.53
16664;BME280;8445;51.270;9.434;2023-03-13T06:24:59;97955.66;;;10.04;75.34
16664;BME280;8445;51.270;9.434;2023-03-13T06:27:25;97960.59;;;9.99;76.21
16664;BME280;8445;51.270;9.434;2023-03-13T06:29:50;97950.56;;;10.02;75.63
16664;BME280;8445;51.270;9.434;2023-03-13T06:32:15;97961.13;;;10.02;76.13
16664;BME280;8445;51.270;9.434;2023-03-13T06:34:41;97976.97;;;10.02;76.75
16664;BME280;8445;51.270;9.434;2023-03-13T06:37:06;97964.28;;;10.06;76.25
16664;BME280;8445;51.270;9.434;2023-03-13T06:39:32;97969.28;;;10.09;76.95
16664;BME280;8445;51.270;9.434;2023-03-13T06:41:58;97973.28;;;10.13;77.09
16664;BME280;8445;51.270;9.434;2023-03-13T06:44:23;97985.50;;;10.14;76.77
16664;BME280;8445;51.270;9.434;2023-03-13T06:46:49;97969.66;;;10.14;77.00
16664;BME280;8445;51.270;9.434;2023-03-13T06:49:14;97969.06;;;10.20;76.95
16664;BME280;8445;51.270;9.434;2023-03-13T06:51:40;97970.03;;;10.19;76.79
16664;BME280;8445;51.270;9.434;2023-03-13T06:54:05;97977.97;;;10.19;76.66
16664;BME280;8445;51.270;9.434;2023-03-13T06:56:31;97975.72;;;10.24;76.36
16664;BME280;8445;51.270;9.434;2023-03-13T06:58:56;97974.34;;;10.20;76.63
16664;BME280;8445;51.270;9.434;2023-03-13T07:01:22;97973.38;;;10.21;77.40
16664;BME280;8445;51.270;9.434;2023-03-13T07:03:47;97955.94;;;10.29;77.12
16664;BME280;8445;51.270;9.434;2023-03-13T07:06:16;97954.66;;;10.33;76.00
16664;BME280;8445;51.270;9.434;2023-03-13T07:08:42;97964.94;;;10.36;76.95
16664;BME280;8445;51.270;9.434;2023-03-13T07:11:10;97949.19;;;10.44;77.42
16664;BME280;8445;51.270;9.434;2023-03-13T07:13:36;97952.22;;;10.49;77.54
16664;BME280;8445;51.270;9.434;2023-03-13T07:16:06;97951.91;;;10.52;76.94
16664;BME280;8445;51.270;9.434;2023-03-13T07:18:32;97962.19;;;10.56;76.75
16664;BME280;8445;51.270;9.434;2023-03-13T07:21:00;97968.16;;;10.58;77.87
16664;BME280;8445;51.270;9.434;2023-03-13T07:23:27;97964.06;;;10.63;77.80
16664;BME280;8445;51.270;9.434;2023-03-13T07:26:00;97955.66;;;10.68;77.93
16664;BME280;8445;51.270;9.434;2023-03-13T07:28:27;97962.31;;;10.72;77.41
16664;BME280;8445;51.270;9.434;2023-03-13T07:30:53;97966.47;;;10.75;77.82
16664;BME280;8445;51.270;9.434;2023-03-13T07:33:19;97975.91;;;10.77;77.67
16664;BME280;8445;51.270;9.434;2023-03-13T07:35:49;97975.91;;;10.77;78.96
16664;BME280;8445;51.270;9.434;2023-03-13T07:38:15;97974.78;;;10.80;78.00
16664;BME280;8445;51.270;9.434;2023-03-13T07:40:50;97972.50;;;10.85;78.23
16664;BME280;8445;51.270;9.434;2023-03-13T07:43:15;97971.34;;;10.88;77.96
16664;BME280;8445;51.270;9.434;2023-03-13T07:45:54;97968.78;;;10.96;79.32
16664;BME280;8445;51.270;9.434;2023-03-13T07:48:24;97972.91;;;10.98;77.77
16664;BME280;8445;51.270;9.434;2023-03-13T07:50:50;97978.75;;;11.02;78.12
16664;BME280;8445;51.270;9.434;2023-03-13T07:53:20;97966.19;;;11.04;77.63
16664;BME280;8445;51.270;9.434;2023-03-13T07:55:58;97970.34;;;11.07;79.42
16664;BME280;8445;51.270;9.434;2023-03-13T07:58:26;97969.84;;;11.03;77.84
16664;BME280;8445;51.270;9.434;2023-03-13T08:00:52;97960.38;;;11.01;77.46
16664;BME280;8445;51.270;9.434;2023-03-13T08:03:17;97964.53;;;11.03;77.61
16664;BME280;8445;51.270;9.434;2023-03-13T08:05:43;97967.84;;;11.05;77.72
16664;BME280;8445;51.270;9.434;2023-03-13T08:08:08;97950.69;;;11.09;77.91
16664;BME280;8445;51.270;9.434;2023-03-13T08:10:34;97951.06;;;11.15;78.08
16664;BME280;8445;51.270;9.434;2023-03-13T08:13:10;97945.84;;;11.31;77.97
16664;BME280;8445;51.270;9.434;2023-03-13T08:15:35;97947.50;;;11.32;78.15
16664;BME280;8445;51.270;9.434;2023-03-13T08:18:01;97939.78;;;11.39;78.53
16664;BME280;8445;51.270;9.434;2023-03-13T08:20:31;97949.94;;;11.52;78.81
16664;BME280;8445;51.270;9.434;2023-03-13T08:22:58;97963.56;;;11.65;78.58
16664;BME280;8445;51.270;9.434;2023-03-13T08:25:26;97962.97;;;11.88;78.78
16664;BME280;8445;51.270;9.434;2023-03-13T08:27:51;97966.41;;;12.07;79.70
16664;BME280;8445;51.270;9.434;2023-03-13T08:30:19;97969.63;;;12.35;79.59
16664;BME280;8445;51.270;9.434;2023-03-13T08:32:47;97975.09;;;12.50;78.85
16664;BME280;8445;51.270;9.434;2023-03-13T08:35:13;97983.38;;;12.47;78.13
16664;BME280;8445;51.270;9.434;2023-03-13T08:37:38;97989.00;;;12.44;77.80
16664;BME280;8445;51.270;9.434;2023-03-13T08:40:04;97977.06;;;12.40;78.05
16664;BME280;8445;51.270;9.434;2023-03-13T08:42:37;97982.88;;;12.43;78.46
16664;BME280;8445;51.270;9.434;2023-03-13T08:45:06;97989.03;;;12.52;78.69
16664;BME280;8445;51.270;9.434;2023-03-13T08:47:31;97980.41;;;12.50;78.72
16664;BME280;8445;51.270;9.434;2023-03-13T08:49:57;97991.38;;;12.64;79.45
16664;BME280;8445;51.270;9.434;2023-03-13T08:52:22;97985.41;;;12.78;79.33
16664;BME280;8445;51.270;9.434;2023-03-13T08:54:50;97987.56;;;12.99;80.08
16664;BME280;8445;51.270;9.434;2023-03-13T08:57:16;97985.03;;;13.31;80.70
16664;BME280;8445;51.270;9.434;2023-03-13T08:59:42;97987.03;;;13.54;79.51
16664;BME280;8445;51.270;9.434;2023-03-13T09:02:08;97991.31;;;13.55;76.99
16664;BME280;8445;51.270;9.434;2023-03-13T09:04:33;97979.41;;;13.51;77.40
16664;BME280;8445;51.270;9.434;2023-03-13T09:06:59;97969.34;;;13.77;78.97
16664;BME280;8445;51.270;9.434;2023-03-13T09:09:24;97975.03;;;14.06;79.13
16664;BME280;8445;51.270;9.434;2023-03-13T09:11:50;97957.28;;;14.30;79.46
16664;BME280;8445;51.270;9.434;2023-03-13T09:14:15;97955.94;;;14.57;80.25
16664;BME280;8445;51.270;9.434;2023-03-13T09:16:41;97936.13;;;14.83;80.48
16664;BME280;8445;51.270;9.434;2023-03-13T09:19:07;97922.69;;;15.15;80.85
16664;BME280;8445;51.270;9.434;2023-03-13T09:21:33;97928.28;;;15.35;79.87
16664;BME280;8445;51.270;9.434;2023-03-13T09:24:00;97924.06;;;15.55;79.68
16664;BME280;8445;51.270;9.434;2023-03-13T09:26:27;97925.16;;;15.76;79.40
16664;BME280;8445;51.270;9.434;2023-03-13T09:28:53;97918.50;;;16.02;79.01
16664;BME280;8445;51.270;9.434;2023-03-13T09:31:22;97918.06;;;16.35;78.83
16664;BME280;8445;51.270;9.434;2023-03-13T09:33:48;97912.94;;;16.62;78.95
16664;BME280;8445;51.270;9.434;2023-03-13T09:36:15;97903.56;;;16.95;78.13
16664;BME280;8445;51.270;9.434;2023-03-13T09:38:41;97903.09;;;17.13;77.22
16664;BME280;8445;51.270;9.434;2023-03-13T09:44:17;97906.44;;;16.93;72.46
16664;BME280;8445;51.270;9.434;2023-03-13T09:49:33;97904.66;;;16.50;74.51
16664;BME280;8445;51.270;9.434;2023-03-13T09:52:22;97918.16;;;16.49;73.16
16664;BME280;8445;51.270;9.434;2023-03-13T09:55:10;97917.53;;;16.25;71.65
16664;BME280;8445;51.270;9.434;2023-03-13T09:57:44;97900.59;;;15.96;73.39
16664;BME280;8445;51.270;9.434;2023-03-13T10:00:13;97903.00;;;15.76;72.14
16664;BME280;8445;51.270;9.434;2023-03-13T10:02:45;97886.59;;;15.42;72.75
16664;BME280;8445;51.270;9.434;2023-03-13T10:05:24;97897.81;;;15.22;72.94
16664;BME280;8445;51.270;9.434;2023-03-13T10:07:49;97901.66;;;15.05;73.45
16664;BME280;8445;51.270;9.434;2023-03-13T10:10:28;97896.41;;;14.96;73.07
16664;BME280;8445;51.270;9.434;2023-03-13T10:13:03;97895.81;;;14.86;72.30
16664;BME280;8445;51.270;9.434;2023-03-13T10:18:31;97908.75;;;14.74;73.09
16664;BME280;8445;51.270;9.434;2023-03-13T10:21:09;97892.78;;;14.74;72.94
16664;BME280;8445;51.270;9.434;2023-03-13T10:26:28;97884.72;;;14.82;72.99
16664;BME280;8445;51.270;9.434;2023-03-13T10:28:55;97886.19;;;14.85;72.77
16664;BME280;8445;51.270;9.434;2023-03-13T10:31:31;97889.84;;;14.84;72.30
16664;BME280;8445;51.270;9.434;2023-03-13T10:34:11;97893.16;;;14.86;72.22
16664;BME280;8445;51.270;9.434;2023-03-13T10:36:55;97886.19;;;14.85;71.40
16664;BME280;8445;51.270;9.434;2023-03-13T10:39:23;97887.84;;;14.86;72.19
16664;BME280;8445;51.270;9.434;2023-03-13T10:41:49;97879.53;;;15.19;73.46
16664;BME280;8445;51.270;9.434;2023-03-13T10:44:21;97881.81;;;15.52;73.84
16664;BME280;8445;51.270;9.434;2023-03-13T10:46:48;97875.06;;;15.71;73.39
16664;BME280;8445;51.270;9.434;2023-03-13T10:49:17;97890.78;;;15.81;72.67
16664;BME280;8445;51.270;9.434;2023-03-13T10:51:51;97880.13;;;15.81;71.83
16664;BME280;8445;51.270;9.434;2023-03-13T10:54:25;97870.19;;;15.75;71.59
16664;BME280;8445;51.270;9.434;2023-03-13T10:57:06;97872.31;;;15.65;71.59
16664;BME280;8445;51.270;9.434;2023-03-13T10:59:38;97877.81;;;15.63;71.71
16664;BME280;8445;51.270;9.434;2023-03-13T11:02:32;97865.41;;;15.70;72.00
16664;BME280;8445;51.270;9.434;2023-03-13T11:05:00;97866.59;;;15.83;72.47
16664;BME280;8445;51.270;9.434;2023-03-13T11:07:33;97871.47;;;15.94;72.64
16664;BME280;8445;51.270;9.434;2023-03-13T11:10:20;97861.69;;;16.23;70.74
16664;BME280;8445;51.270;9.434;2023-03-13T11:12:48;97843.28;;;16.57;73.57
16664;BME280;8445;51.270;9.434;2023-03-13T11:15:18;97861.56;;;17.03;74.53
16664;BME280;8445;51.270;9.434;2023-03-13T11:17:53;97854.28;;;17.32;73.01
16664;BME280;8445;51.270;9.434;2023-03-13T11:20:28;97851.94;;;17.58;72.42
16664;BME280;8445;51.270;9.434;2023-03-13T11:23:08;97858.06;;;17.45;69.69
16664;BME280;8445;51.270;9.434;2023-03-13T11:25:42;97865.06;;;17.46;69.71
16664;BME280;8445;51.270;9.434;2023-03-13T11:33:37;97836.78;;;16.95;68.51
16664;BME280;8445;51.270;9.434;2023-03-13T11:38:41;97835.34;;;16.92;70.02
16664;BME280;8445;51.270;9.434;2023-03-13T11:42:00;97824.53;;;17.00;68.74
16664;BME280;8445;51.270;9.434;2023-03-13T11:53:14;97834.41;;;16.50;70.19
16664;BME280;8445;51.270;9.434;2023-03-13T11:56:06;97828.59;;;16.39;69.74
16664;BME280;8445;51.270;9.434;2023-03-13T11:59:15;97825.72;;;16.41;67.88
16664;BME280;8445;51.270;9.434;2023-03-13T12:02:17;97815.59;;;16.58;70.13
16664;BME280;8445;51.270;9.434;2023-03-13T12:04:54;97817.06;;;16.60;70.71
16664;BME280;8445;51.270;9.434;2023-03-13T12:07:40;97809.81;;;16.54;70.25
16664;BME280;8445;51.270;9.434;2023-03-13T12:10:46;97806.25;;;16.75;70.77
16664;BME280;8445;51.270;9.434;2023-03-13T12:15:53;97798.31;;;16.54;67.58
16664;BME280;8445;51.270;9.434;2023-03-13T12:18:33;97801.91;;;16.39;68.96
16664;BME280;8445;51.270;9.434;2023-03-13T12:26:20;97789.91;;;16.57;69.54
16664;BME280;8445;51.270;9.434;2023-03-13T12:28:55;97783.63;;;16.36;68.80
16664;BME280;8445;51.270;9.434;2023-03-13T12:31:28;97783.38;;;16.09;69.24
16664;BME280;8445;51.270;9.434;2023-03-13T12:34:25;97772.78;;;15.94;69.32
16664;BME280;8445;51.270;9.434;2023-03-13T12:36:57;97766.63;;;15.94;69.78
16664;BME280;8445;51.270;9.434;2023-03-13T12:45:16;97739.31;;;15.92;69.68
16664;BME280;8445;51.270;9.434;2023-03-13T12:51:17;97728.53;;;16.00;69.29
16664;BME280;8445;51.270;9.434;2023-03-13T12:54:25;97729.66;;;15.91;69.18
16664;BME280;8445;51.270;9.434;2023-03-13T12:58:06;97722.31;;;15.93;69.44
16664;BME280;8445;51.270;9.434;2023-03-13T12:59:59;97711.22;;;15.89;69.68
16664;BME280;8445;51.270;9.434;2023-03-13T13:02:33;97715.72;;;15.89;70.04
16664;BME280;8445;51.270;9.434;2023-03-13T13:05:01;97715.19;;;15.78;69.76
16664;BME280;8445;51.270;9.434;2023-03-13T13:07:33;97703.56;;;15.64;69.86
16664;BME280;8445;51.270;9.434;2023-03-13T13:12:40;97697.53;;;15.55;70.11
16664;BME280;8445;51.270;9.434;2023-03-13T13:20:46;97707.09;;;15.28;69.82
16664;BME280;8445;51.270;9.434;2023-03-13T13:23:27;97705.66;;;15.25;69.86
16664;BME280;8445;51.270;9.434;2023-03-13T13:31:56;97694.31;;;15.02;70.29
16664;BME280;8445;51.270;9.434;2023-03-13T13:39:43;97676.38;;;15.10;69.77
16664;BME280;8445;51.270;9.434;2023-03-13T13:48:06;97675.63;;;14.80;70.81
16664;BME280;8445;51.270;9.434;2023-03-13T13:50:37;97677.56;;;14.71;69.89
16664;BME280;8445;51.270;9.434;2023-03-13T13:53:29;97662.44;;;14.72;71.74
16664;BME280;8445;51.270;9.434;2023-03-13T13:55:56;97658.09;;;14.86;70.83
16664;BME280;8445;51.270;9.434;2023-03-13T13:58:30;97649.06;;;15.02;71.19
16664;BME280;8445;51.270;9.434;2023-03-13T14:01:00;97659.13;;;15.06;71.04
16664;BME280;8445;51.270;9.434;2023-03-13T14:03:30;97661.41;;;15.09;70.48
16664;BME280;8445;51.270;9.434;2023-03-13T14:06:23;97650.22;;;15.14;70.73
16664;BME280;8445;51.270;9.434;2023-03-13T14:08:54;97646.91;;;15.12;70.08
16664;BME280;8445;51.270;9.434;2023-03-13T14:11:40;97642.59;;;15.11;70.94
16664;BME280;8445;51.270;9.434;2023-03-13T14:14:20;97636.38;;;15.04;71.03
16664;BME280;8445;51.270;9.434;2023-03-13T14:16:54;97624.13;;;14.88;70.61
16664;BME280;8445;51.270;9.434;2023-03-13T14:19:28;97630.94;;;14.75;70.44
16664;BME280;8445;51.270;9.434;2023-03-13T14:22:04;97647.72;;;14.61;70.93
16664;BME280;8445;51.270;9.434;2023-03-13T14:24:30;97643.78;;;14.57;70.64
16664;BME280;8445;51.270;9.434;2023-03-13T14:26:55;97637.66;;;14.56;71.37
16664;BME280;8445;51.270;9.434;2023-03-13T14:29:22;97633.06;;;14.50;71.29
16664;BME280;8445;51.270;9.434;2023-03-13T14:31:53;97623.88;;;14.37;72.11
16664;BME280;8445;51.270;9.434;2023-03-13T14:34:22;97620.69;;;14.27;71.50
16664;BME280;8445;51.270;9.434;2023-03-13T14:36:53;97620.13;;;14.17;72.60
16664;BME280;8445;51.270;9.434;2023-03-13T14:42:14;97620.31;;;14.30;73.85
16664;BME280;8445;51.270;9.434;2023-03-13T14:44:41;97609.00;;;14.43;73.26
16664;BME280;8445;51.270;9.434;2023-03-13T14:47:30;97594.91;;;14.43;73.83
16664;BME280;8445;51.270;9.434;2023-03-13T14:50:10;97590.97;;;14.38;72.89
16664;BME280;8445;51.270;9.434;2023-03-13T14:52:44;97586.81;;;14.51;73.99
16664;BME280;8445;51.270;9.434;2023-03-13T15:00:40;97574.56;;;14.35;74.52
16664;BME280;8445;51.270;9.434;2023-03-13T15:06:41;97558.03;;;14.40;72.91
16664;BME280;8445;51.270;9.434;2023-03-13T15:11:42;97547.66;;;14.45;72.89
16664;BME280;8445;51.270;9.434;2023-03-13T15:14:39;97532.13;;;14.48;72.89
16664;BME280;8445;51.270;9.434;2023-03-13T15:17:19;97536.00;;;14.46;73.21
16664;BME280;8445;51.270;9.434;2023-03-13T15:19:57;97541.31;;;14.46;73.11